sensor_id;sensor_type;location;lat;lon;timestamp;P1;durP1;ratioP1;P2;durP2;ratioP2
39044;SDS011;52192;52.002;5.956;2024-02-21T00:00:56;12.80;;;3.95;;
39044;SDS011;52192;52.002;5.956;2024-02-21T00:03:22;10.77;;;4.07;;
39044;SDS011;52192;52.002;5.956;2024-02-21T00:05:48;17.00;;;5.20;;
39044;SDS011;52192;52.002;5.956;2024-02-21T00:08:14;4.97;;;3.33;;
39044;SDS011;52192;52.002;5.956;2024-02-21T00:10:40;8.23;;;3.20;;
39044;SDS011;52192;52.002;5.956;2024-02-21T00:13:06;9.35;;;3.65;;
39044;SDS011;52192;52.002;5.956;2024-02-21T00:15:32;13.60;;;5.07;;
39044;SDS011;52192;52.002;5.956;2024-02-21T00:17:58;11.63;;;4.22;;
39044;SDS011;52192;52.002;5.956;2024-02-21T00:20:24;7.32;;;3.63;;
39044;SDS011;52192;52.002;5.956;2024-02-21T00:22:51;6.35;;;3.83;;
39044;SDS011;52192;52.002;5.956;2024-02-21T00:25:17;8.73;;;3.60;;
39044;SDS011;52192;52.002;5.956;2024-02-21T00:27:43;7.20;;;3.22;;
39044;SDS011;52192;52.002;5.956;2024-02-21T00:30:09;11.82;;;3.72;;
39044;SDS011;52192;52.002;5.956;2024-02-21T00:32:36;6.65;;;3.00;;
39044;SDS011;52192;52.002;5.956;2024-02-21T00:35:02;5.85;;;3.40;;
39044;SDS011;52192;52.002;5.956;2024-02-21T00:37:28;14.13;;;4.68;;
39044;SDS011;52192;52.002;5.956;2024-02-21T00:39:54;5.35;;;4.13;;
39044;SDS011;52192;52.002;5.956;2024-02-21T00:42:20;8.73;;;4.40;;
39044;SDS011;52192;52.002;5.956;2024-02-21T00:44:46;12.27;;;4.40;;
39044;SDS011;52192;52.002;5.956;2024-02-21T00:47:12;4.18;;;2.40;;
39044;SDS011;52192;52.002;5.956;2024-02-21T00:49:39;6.68;;;3.10;;
39044;SDS011;52192;52.002;5.956;2024-02-21T00:52:05;6.38;;;3.28;;
39044;SDS011;52192;52.002;5.956;2024-02-21T00:54:31;9.60;;;4.38;;
39044;SDS011;52192;52.002;5.956;2024-02-21T00:56:56;11.90;;;3.38;;
39044;SDS011;52192;52.002;5.956;2024-02-21T00:59:22;8.73;;;4.07;;
39044;SDS011;52192;52.002;5.956;2024-02-21T01:01:48;8.68;;;3.78;;
39044;SDS011;52192;52.002;5.956;2024-02-21T01:04:14;6.35;;;4.15;;
39044;SDS011;52192;52.002;5.956;2024-02-21T01:06:40;5.97;;;3.30;;
39044;SDS011;52192;52.002;5.956;2024-02-21T01:09:09;8.45;;;3.40;;
39044;SDS011;52192;52.002;5.956;2024-02-21T01:11:36;9.50;;;3.20;;
39044;SDS011;52192;52.002;5.956;2024-02-21T01:14:02;9.88;;;3.97;;
39044;SDS011;52192;52.002;5.956;2024-02-21T01:16:28;7.47;;;2.67;;
39044;SDS011;52192;52.002;5.956;2024-02-21T01:18:54;7.53;;;3.17;;
39044;SDS011;52192;52.002;5.956;2024-02-21T01:21:20;9.40;;;2.80;;
39044;SDS011;52192;52.002;5.956;2024-02-21T01:23:46;9.38;;;3.63;;
39044;SDS011;52192;52.002;5.956;2024-02-21T01:26:12;5.32;;;2.67;;
39044;SDS011;52192;52.002;5.956;2024-02-21T01:28:40;5.97;;;3.53;;
39044;SDS011;52192;52.002;5.956;2024-02-21T01:31:07;4.90;;;2.70;;
39044;SDS011;52192;52.002;5.956;2024-02-21T01:33:33;13.18;;;3.97;;
39044;SDS011;52192;52.002;5.956;2024-02-21T01:36:04;5.18;;;2.97;;
39044;SDS011;52192;52.002;5.956;2024-02-21T01:38:33;5.82;;;2.58;;
39044;SDS011;52192;52.002;5.956;2024-02-21T01:40:59;11.25;;;3.10;;
39044;SDS011;52192;52.002;5.956;2024-02-21T01:43:25;8.45;;;4.07;;
39044;SDS011;52192;52.002;5.956;2024-02-21T01:45:52;12.52;;;3.45;;
39044;SDS011;52192;52.002;5.956;2024-02-21T01:48:20;5.38;;;2.63;;
39044;SDS011;52192;52.002;5.956;2024-02-21T01:50:51;5.10;;;3.17;;
39044;SDS011;52192;52.002;5.956;2024-02-21T01:53:27;9.27;;;3.63;;
39044;SDS011;52192;52.002;5.956;2024-02-21T01:55:59;5.13;;;2.85;;
39044;SDS011;52192;52.002;5.956;2024-02-21T01:58:25;14.20;;;3.83;;
39044;SDS011;52192;52.002;5.956;2024-02-21T02:00:54;8.18;;;4.03;;
39044;SDS011;52192;52.002;5.956;2024-02-21T02:03:22;8.70;;;3.53;;
39044;SDS011;52192;52.002;5.956;2024-02-21T02:05:49;8.45;;;3.95;;
39044;SDS011;52192;52.002;5.956;2024-02-21T02:08:16;6.40;;;3.70;;
39044;SDS011;52192;52.002;5.956;2024-02-21T02:10:44;6.28;;;3.50;;
39044;SDS011;52192;52.002;5.956;2024-02-21T02:13:10;10.50;;;3.85;;
39044;SDS011;52192;52.002;5.956;2024-02-21T02:15:43;8.40;;;3.25;;
39044;SDS011;52192;52.002;5.956;2024-02-21T02:18:11;6.20;;;3.15;;
39044;SDS011;52192;52.002;5.956;2024-02-21T02:20:38;6.05;;;3.13;;
39044;SDS011;52192;52.002;5.956;2024-02-21T02:23:25;9.75;;;3.38;;
39044;SDS011;52192;52.002;5.956;2024-02-21T02:25:55;4.97;;;2.72;;
39044;SDS011;52192;52.002;5.956;2024-02-21T02:28:21;13.55;;;3.88;;
39044;SDS011;52192;52.002;5.956;2024-02-21T02:30:47;7.60;;;3.33;;
39044;SDS011;52192;52.002;5.956;2024-02-21T02:33:14;11.32;;;3.80;;
39044;SDS011;52192;52.002;5.956;2024-02-21T02:35:42;14.02;;;3.80;;
39044;SDS011;52192;52.002;5.956;2024-02-21T02:38:08;6.40;;;4.00;;
39044;SDS011;52192;52.002;5.956;2024-02-21T02:40:37;11.88;;;3.90;;
39044;SDS011;52192;52.002;5.956;2024-02-21T02:43:05;8.30;;;2.97;;
39044;SDS011;52192;52.002;5.956;2024-02-21T02:45:32;10.35;;;3.53;;
39044;SDS011;52192;52.002;5.956;2024-02-21T02:47:58;9.05;;;3.70;;
39044;SDS011;52192;52.002;5.956;2024-02-21T02:50:25;11.13;;;3.60;;
39044;SDS011;52192;52.002;5.956;2024-02-21T02:52:52;5.03;;;3.55;;
39044;SDS011;52192;52.002;5.956;2024-02-21T02:55:19;6.32;;;2.95;;
39044;SDS011;52192;52.002;5.956;2024-02-21T02:57:45;6.05;;;2.88;;
39044;SDS011;52192;52.002;5.956;2024-02-21T03:00:11;10.05;;;3.58;;
39044;SDS011;52192;52.002;5.956;2024-02-21T03:02:39;5.80;;;3.00;;
39044;SDS011;52192;52.002;5.956;2024-02-21T03:05:15;7.22;;;4.20;;
39044;SDS011;52192;52.002;5.956;2024-02-21T03:07:43;8.45;;;3.45;;
39044;SDS011;52192;52.002;5.956;2024-02-21T03:10:10;7.60;;;2.60;;
39044;SDS011;52192;52.002;5.956;2024-02-21T03:12:36;4.53;;;2.45;;
39044;SDS011;52192;52.002;5.956;2024-02-21T03:15:03;9.88;;;3.47;;
39044;SDS011;52192;52.002;5.956;2024-02-21T03:17:30;8.05;;;2.80;;
39044;SDS011;52192;52.002;5.956;2024-02-21T03:19:57;7.50;;;4.32;;
39044;SDS011;52192;52.002;5.956;2024-02-21T03:22:25;7.10;;;2.85;;
39044;SDS011;52192;52.002;5.956;2024-02-21T03:24:51;5.38;;;2.65;;
39044;SDS011;52192;52.002;5.956;2024-02-21T03:27:17;4.75;;;3.25;;
39044;SDS011;52192;52.002;5.956;2024-02-21T03:29:43;6.35;;;2.53;;
39044;SDS011;52192;52.002;5.956;2024-02-21T03:32:09;5.68;;;3.13;;
39044;SDS011;52192;52.002;5.956;2024-02-21T03:34:35;5.43;;;2.45;;
39044;SDS011;52192;52.002;5.956;2024-02-21T03:37:01;6.20;;;2.97;;
39044;SDS011;52192;52.002;5.956;2024-02-21T03:39:30;6.57;;;3.67;;
39044;SDS011;52192;52.002;5.956;2024-02-21T03:41:57;4.97;;;3.17;;
39044;SDS011;52192;52.002;5.956;2024-02-21T03:44:25;7.05;;;2.53;;
39044;SDS011;52192;52.002;5.956;2024-02-21T03:46:52;8.93;;;3.95;;
39044;SDS011;52192;52.002;5.956;2024-02-21T03:49:18;11.05;;;3.00;;
39044;SDS011;52192;52.002;5.956;2024-02-21T03:51:44;8.52;;;3.45;;
39044;SDS011;52192;52.002;5.956;2024-02-21T03:54:10;3.85;;;2.17;;
39044;SDS011;52192;52.002;5.956;2024-02-21T03:56:39;7.45;;;3.08;;
39044;SDS011;52192;52.002;5.956;2024-02-21T03:59:08;7.28;;;3.58;;
39044;SDS011;52192;52.002;5.956;2024-02-21T04:01:34;7.00;;;3.35;;
39044;SDS011;52192;52.002;5.956;2024-02-21T04:04:00;4.10;;;2.58;;
39044;SDS011;52192;52.002;5.956;2024-02-21T04:06:27;8.43;;;3.28;;
39044;SDS011;52192;52.002;5.956;2024-02-21T04:08:53;4.88;;;2.17;;
39044;SDS011;52192;52.002;5.956;2024-02-21T04:11:19;6.82;;;2.75;;
39044;SDS011;52192;52.002;5.956;2024-02-21T04:13:45;7.07;;;2.83;;
39044;SDS011;52192;52.002;5.956;2024-02-21T04:16:14;3.20;;;1.95;;
39044;SDS011;52192;52.002;5.956;2024-02-21T04:18:41;4.57;;;2.38;;
39044;SDS011;52192;52.002;5.956;2024-02-21T04:21:07;5.65;;;2.35;;
39044;SDS011;52192;52.002;5.956;2024-02-21T04:23:34;6.32;;;3.35;;
39044;SDS011;52192;52.002;5.956;2024-02-21T04:25:59;5.97;;;3.05;;
39044;SDS011;52192;52.002;5.956;2024-02-21T04:28:26;6.72;;;2.75;;
39044;SDS011;52192;52.002;5.956;2024-02-21T04:30:52;4.20;;;2.03;;
39044;SDS011;52192;52.002;5.956;2024-02-21T04:33:18;3.88;;;1.90;;
39044;SDS011;52192;52.002;5.956;2024-02-21T04:35:44;5.07;;;2.38;;
39044;SDS011;52192;52.002;5.956;2024-02-21T04:38:10;3.97;;;1.60;;
39044;SDS011;52192;52.002;5.956;2024-02-21T04:40:36;5.93;;;2.38;;
39044;SDS011;52192;52.002;5.956;2024-02-21T04:43:02;2.63;;;2.20;;
39044;SDS011;52192;52.002;5.956;2024-02-21T04:45:30;4.50;;;1.85;;
39044;SDS011;52192;52.002;5.956;2024-02-21T04:47:56;5.45;;;2.15;;
39044;SDS011;52192;52.002;5.956;2024-02-21T04:50:22;8.15;;;2.90;;
39044;SDS011;52192;52.002;5.956;2024-02-21T04:52:47;4.75;;;2.15;;
39044;SDS011;52192;52.002;5.956;2024-02-21T04:55:14;12.75;;;3.47;;
39044;SDS011;52192;52.002;5.956;2024-02-21T04:57:40;6.38;;;2.25;;
39044;SDS011;52192;52.002;5.956;2024-02-21T05:00:06;4.53;;;1.95;;
39044;SDS011;52192;52.002;5.956;2024-02-21T05:02:32;2.58;;;1.75;;
39044;SDS011;52192;52.002;5.956;2024-02-21T05:04:58;1.90;;;1.30;;
39044;SDS011;52192;52.002;5.956;2024-02-21T05:07:24;4.97;;;1.90;;
39044;SDS011;52192;52.002;5.956;2024-02-21T05:09:50;8.38;;;2.10;;
39044;SDS011;52192;52.002;5.956;2024-02-21T05:12:16;9.45;;;2.30;;
39044;SDS011;52192;52.002;5.956;2024-02-21T05:14:43;7.78;;;2.33;;
39044;SDS011;52192;52.002;5.956;2024-02-21T05:17:08;3.53;;;2.28;;
39044;SDS011;52192;52.002;5.956;2024-02-21T05:19:34;3.38;;;1.70;;
39044;SDS011;52192;52.002;5.956;2024-02-21T05:22:00;3.63;;;2.67;;
39044;SDS011;52192;52.002;5.956;2024-02-21T05:24:26;4.97;;;2.10;;
39044;SDS011;52192;52.002;5.956;2024-02-21T05:26:53;5.15;;;1.98;;
39044;SDS011;52192;52.002;5.956;2024-02-21T05:29:19;5.82;;;2.20;;
39044;SDS011;52192;52.002;5.956;2024-02-21T05:34:21;8.57;;;2.72;;
39044;SDS011;52192;52.002;5.956;2024-02-21T05:36:47;3.92;;;3.22;;
39044;SDS011;52192;52.002;5.956;2024-02-21T05:39:14;6.55;;;2.17;;
39044;SDS011;52192;52.002;5.956;2024-02-21T05:41:41;4.15;;;2.28;;
39044;SDS011;52192;52.002;5.956;2024-02-21T05:44:07;6.05;;;2.15;;
39044;SDS011;52192;52.002;5.956;2024-02-21T05:46:33;3.97;;;2.55;;
39044;SDS011;52192;52.002;5.956;2024-02-21T05:49:00;5.50;;;3.17;;
39044;SDS011;52192;52.002;5.956;2024-02-21T05:51:26;6.03;;;2.42;;
39044;SDS011;52192;52.002;5.956;2024-02-21T05:53:52;6.82;;;2.90;;
39044;SDS011;52192;52.002;5.956;2024-02-21T05:56:18;5.63;;;2.50;;
39044;SDS011;52192;52.002;5.956;2024-02-21T05:58:44;4.55;;;2.70;;
39044;SDS011;52192;52.002;5.956;2024-02-21T06:01:10;2.80;;;2.38;;
39044;SDS011;52192;52.002;5.956;2024-02-21T06:03:36;5.72;;;2.50;;
39044;SDS011;52192;52.002;5.956;2024-02-21T06:06:02;5.45;;;2.35;;
39044;SDS011;52192;52.002;5.956;2024-02-21T06:08:29;4.03;;;2.17;;
39044;SDS011;52192;52.002;5.956;2024-02-21T06:10:55;3.95;;;2.22;;
39044;SDS011;52192;52.002;5.956;2024-02-21T06:13:21;4.95;;;2.05;;
39044;SDS011;52192;52.002;5.956;2024-02-21T06:15:48;4.72;;;1.65;;
39044;SDS011;52192;52.002;5.956;2024-02-21T06:18:15;3.75;;;1.90;;
39044;SDS011;52192;52.002;5.956;2024-02-21T06:20:44;5.38;;;3.20;;
39044;SDS011;52192;52.002;5.956;2024-02-21T06:23:11;11.40;;;2.63;;
39044;SDS011;52192;52.002;5.956;2024-02-21T06:25:37;4.18;;;2.90;;
39044;SDS011;52192;52.002;5.956;2024-02-21T06:28:04;5.40;;;2.10;;
39044;SDS011;52192;52.002;5.956;2024-02-21T06:30:30;9.75;;;3.67;;
39044;SDS011;52192;52.002;5.956;2024-02-21T06:32:56;5.03;;;2.60;;
39044;SDS011;52192;52.002;5.956;2024-02-21T06:35:22;5.30;;;2.58;;
39044;SDS011;52192;52.002;5.956;2024-02-21T06:37:51;6.00;;;3.17;;
39044;SDS011;52192;52.002;5.956;2024-02-21T06:40:23;6.70;;;2.55;;
39044;SDS011;52192;52.002;5.956;2024-02-21T06:42:49;4.47;;;2.33;;
39044;SDS011;52192;52.002;5.956;2024-02-21T06:45:15;12.05;;;1.80;;
39044;SDS011;52192;52.002;5.956;2024-02-21T06:47:41;5.38;;;2.95;;
39044;SDS011;52192;52.002;5.956;2024-02-21T06:50:07;3.70;;;2.75;;
39044;SDS011;52192;52.002;5.956;2024-02-21T06:52:33;7.25;;;2.42;;
39044;SDS011;52192;52.002;5.956;2024-02-21T06:54:59;6.20;;;2.65;;
39044;SDS011;52192;52.002;5.956;2024-02-21T06:57:25;8.32;;;1.85;;
39044;SDS011;52192;52.002;5.956;2024-02-21T06:59:51;3.08;;;2.10;;
39044;SDS011;52192;52.002;5.956;2024-02-21T07:02:16;4.15;;;2.15;;
39044;SDS011;52192;52.002;5.956;2024-02-21T07:04:42;6.00;;;1.85;;
39044;SDS011;52192;52.002;5.956;2024-02-21T07:07:08;7.72;;;2.25;;
39044;SDS011;52192;52.002;5.956;2024-02-21T07:09:34;3.80;;;2.20;;
39044;SDS011;52192;52.002;5.956;2024-02-21T07:12:00;3.38;;;1.80;;
39044;SDS011;52192;52.002;5.956;2024-02-21T07:14:28;9.25;;;2.10;;
39044;SDS011;52192;52.002;5.956;2024-02-21T07:16:53;7.07;;;2.80;;
39044;SDS011;52192;52.002;5.956;2024-02-21T07:19:19;6.78;;;3.13;;
39044;SDS011;52192;52.002;5.956;2024-02-21T07:21:45;7.05;;;2.13;;
39044;SDS011;52192;52.002;5.956;2024-02-21T07:24:11;4.05;;;2.40;;
39044;SDS011;52192;52.002;5.956;2024-02-21T07:26:37;3.15;;;2.67;;
39044;SDS011;52192;52.002;5.956;2024-02-21T07:29:06;6.95;;;3.08;;
39044;SDS011;52192;52.002;5.956;2024-02-21T07:31:38;4.22;;;2.08;;
39044;SDS011;52192;52.002;5.956;2024-02-21T07:34:07;4.10;;;2.08;;
39044;SDS011;52192;52.002;5.956;2024-02-21T07:36:33;3.85;;;2.45;;
39044;SDS011;52192;52.002;5.956;2024-02-21T07:38:58;3.67;;;1.88;;
39044;SDS011;52192;52.002;5.956;2024-02-21T07:41:24;5.25;;;2.05;;
39044;SDS011;52192;52.002;5.956;2024-02-21T07:43:51;8.35;;;3.08;;
39044;SDS011;52192;52.002;5.956;2024-02-21T07:46:17;3.10;;;1.85;;
39044;SDS011;52192;52.002;5.956;2024-02-21T07:48:43;3.05;;;1.77;;
39044;SDS011;52192;52.002;5.956;2024-02-21T07:51:10;5.55;;;2.67;;
39044;SDS011;52192;52.002;5.956;2024-02-21T07:53:36;7.93;;;2.35;;
39044;SDS011;52192;52.002;5.956;2024-02-21T07:56:03;4.03;;;1.95;;
39044;SDS011;52192;52.002;5.956;2024-02-21T07:58:29;4.60;;;1.90;;
39044;SDS011;52192;52.002;5.956;2024-02-21T08:00:55;6.40;;;2.22;;
39044;SDS011;52192;52.002;5.956;2024-02-21T08:03:20;6.00;;;2.33;;
39044;SDS011;52192;52.002;5.956;2024-02-21T08:05:47;6.78;;;1.98;;
39044;SDS011;52192;52.002;5.956;2024-02-21T08:08:13;3.20;;;2.25;;
39044;SDS011;52192;52.002;5.956;2024-02-21T08:10:43;3.17;;;1.73;;
39044;SDS011;52192;52.002;5.956;2024-02-21T08:13:09;6.15;;;2.42;;
39044;SDS011;52192;52.002;5.956;2024-02-21T08:15:34;3.90;;;3.13;;
39044;SDS011;52192;52.002;5.956;2024-02-21T08:18:00;4.43;;;2.15;;
39044;SDS011;52192;52.002;5.956;2024-02-21T08:20:27;3.25;;;2.22;;
39044;SDS011;52192;52.002;5.956;2024-02-21T08:22:52;2.35;;;1.70;;
39044;SDS011;52192;52.002;5.956;2024-02-21T08:25:18;6.82;;;2.72;;
39044;SDS011;52192;52.002;5.956;2024-02-21T08:27:44;3.00;;;2.20;;
39044;SDS011;52192;52.002;5.956;2024-02-21T08:30:10;4.53;;;2.50;;
39044;SDS011;52192;52.002;5.956;2024-02-21T08:32:36;7.40;;;3.30;;
39044;SDS011;52192;52.002;5.956;2024-02-21T08:35:02;6.50;;;2.63;;
39044;SDS011;52192;52.002;5.956;2024-02-21T08:37:30;5.22;;;2.53;;
39044;SDS011;52192;52.002;5.956;2024-02-21T08:39:56;5.70;;;3.03;;
39044;SDS011;52192;52.002;5.956;2024-02-21T08:42:21;5.97;;;2.33;;
39044;SDS011;52192;52.002;5.956;2024-02-21T08:44:47;6.47;;;2.38;;
39044;SDS011;52192;52.002;5.956;2024-02-21T08:47:13;5.47;;;2.17;;
39044;SDS011;52192;52.002;5.956;2024-02-21T08:49:38;3.90;;;2.15;;
39044;SDS011;52192;52.002;5.956;2024-02-21T08:52:04;4.28;;;2.33;;
39044;SDS011;52192;52.002;5.956;2024-02-21T08:54:30;4.22;;;2.50;;
39044;SDS011;52192;52.002;5.956;2024-02-21T08:56:58;4.68;;;2.80;;
39044;SDS011;52192;52.002;5.956;2024-02-21T08:59:23;5.43;;;2.60;;
39044;SDS011;52192;52.002;5.956;2024-02-21T09:01:51;10.63;;;3.13;;
39044;SDS011;52192;52.002;5.956;2024-02-21T09:04:18;5.40;;;2.55;;
39044;SDS011;52192;52.002;5.956;2024-02-21T09:06:44;5.38;;;2.47;;
39044;SDS011;52192;52.002;5.956;2024-02-21T09:09:11;5.22;;;2.22;;
39044;SDS011;52192;52.002;5.956;2024-02-21T09:11:37;3.40;;;2.38;;
39044;SDS011;52192;52.002;5.956;2024-02-21T09:14:03;3.05;;;2.47;;
39044;SDS011;52192;52.002;5.956;2024-02-21T09:16:30;9.57;;;2.40;;
39044;SDS011;52192;52.002;5.956;2024-02-21T09:18:59;4.75;;;2.42;;
39044;SDS011;52192;52.002;5.956;2024-02-21T09:21:25;16.88;;;2.05;;
39044;SDS011;52192;52.002;5.956;2024-02-21T09:23:51;3.30;;;1.70;;
39044;SDS011;52192;52.002;5.956;2024-02-21T09:26:16;4.15;;;2.30;;
39044;SDS011;52192;52.002;5.956;2024-02-21T09:28:43;7.68;;;2.55;;
39044;SDS011;52192;52.002;5.956;2024-02-21T09:31:11;4.07;;;2.53;;
39044;SDS011;52192;52.002;5.956;2024-02-21T09:33:37;3.42;;;2.42;;
39044;SDS011;52192;52.002;5.956;2024-02-21T09:36:03;3.88;;;2.22;;
39044;SDS011;52192;52.002;5.956;2024-02-21T09:38:30;4.50;;;2.47;;
39044;SDS011;52192;52.002;5.956;2024-02-21T09:41:00;5.40;;;2.20;;
39044;SDS011;52192;52.002;5.956;2024-02-21T09:43:36;4.03;;;2.08;;
39044;SDS011;52192;52.002;5.956;2024-02-21T09:46:05;7.43;;;3.10;;
39044;SDS011;52192;52.002;5.956;2024-02-21T09:48:41;6.35;;;2.95;;
39044;SDS011;52192;52.002;5.956;2024-02-21T09:51:11;5.28;;;1.92;;
39044;SDS011;52192;52.002;5.956;2024-02-21T09:53:38;4.32;;;2.15;;
39044;SDS011;52192;52.002;5.956;2024-02-21T09:56:09;3.00;;;1.80;;
39044;SDS011;52192;52.002;5.956;2024-02-21T09:58:36;7.38;;;2.10;;
39044;SDS011;52192;52.002;5.956;2024-02-21T10:01:02;5.82;;;2.72;;
39044;SDS011;52192;52.002;5.956;2024-02-21T10:03:31;5.70;;;2.67;;
39044;SDS011;52192;52.002;5.956;2024-02-21T10:05:58;2.90;;;1.92;;
39044;SDS011;52192;52.002;5.956;2024-02-21T10:08:26;3.75;;;2.17;;
39044;SDS011;52192;52.002;5.956;2024-02-21T10:10:52;5.05;;;2.40;;
39044;SDS011;52192;52.002;5.956;2024-02-21T10:13:27;2.90;;;2.10;;
39044;SDS011;52192;52.002;5.956;2024-02-21T10:18:30;2.63;;;1.60;;
39044;SDS011;52192;52.002;5.956;2024-02-21T10:21:05;3.67;;;2.13;;
39044;SDS011;52192;52.002;5.956;2024-02-21T10:23:44;2.42;;;1.45;;
39044;SDS011;52192;52.002;5.956;2024-02-21T10:26:11;3.75;;;2.05;;
39044;SDS011;52192;52.002;5.956;2024-02-21T10:28:37;8.00;;;1.92;;
39044;SDS011;52192;52.002;5.956;2024-02-21T10:31:11;6.03;;;1.63;;
39044;SDS011;52192;52.002;5.956;2024-02-21T10:33:53;4.75;;;2.03;;
39044;SDS011;52192;52.002;5.956;2024-02-21T10:36:22;3.45;;;1.65;;
39044;SDS011;52192;52.002;5.956;2024-02-21T10:38:49;6.13;;;1.90;;
39044;SDS011;52192;52.002;5.956;2024-02-21T10:41:15;3.60;;;2.03;;
39044;SDS011;52192;52.002;5.956;2024-02-21T10:43:44;1.25;;;1.13;;
39044;SDS011;52192;52.002;5.956;2024-02-21T10:46:14;2.47;;;1.58;;
39044;SDS011;52192;52.002;5.956;2024-02-21T10:48:44;2.20;;;1.20;;
39044;SDS011;52192;52.002;5.956;2024-02-21T10:56:44;3.72;;;1.67;;
39044;SDS011;52192;52.002;5.956;2024-02-21T10:59:11;2.13;;;1.40;;
39044;SDS011;52192;52.002;5.956;2024-02-21T11:01:38;1.80;;;0.90;;
39044;SDS011;52192;52.002;5.956;2024-02-21T11:04:05;2.10;;;0.88;;
39044;SDS011;52192;52.002;5.956;2024-02-21T11:06:32;2.90;;;1.55;;
39044;SDS011;52192;52.002;5.956;2024-02-21T11:11:26;3.13;;;1.55;;
39044;SDS011;52192;52.002;5.956;2024-02-21T11:13:52;1.83;;;1.38;;
39044;SDS011;52192;52.002;5.956;2024-02-21T11:16:21;3.30;;;1.90;;
39044;SDS011;52192;52.002;5.956;2024-02-21T11:18:48;2.28;;;1.40;;
39044;SDS011;52192;52.002;5.956;2024-02-21T11:21:14;2.78;;;1.75;;
39044;SDS011;52192;52.002;5.956;2024-02-21T11:23:40;2.20;;;1.20;;
39044;SDS011;52192;52.002;5.956;2024-02-21T11:26:09;2.05;;;1.17;;
39044;SDS011;52192;52.002;5.956;2024-02-21T11:28:44;3.45;;;1.60;;
39044;SDS011;52192;52.002;5.956;2024-02-21T11:31:13;3.22;;;2.05;;
39044;SDS011;52192;52.002;5.956;2024-02-21T11:33:42;2.00;;;1.30;;
39044;SDS011;52192;52.002;5.956;2024-02-21T11:36:09;3.17;;;1.83;;
39044;SDS011;52192;52.002;5.956;2024-02-21T11:38:35;3.05;;;1.70;;
39044;SDS011;52192;52.002;5.956;2024-02-21T11:41:01;2.75;;;1.80;;
39044;SDS011;52192;52.002;5.956;2024-02-21T11:43:26;2.70;;;1.95;;
39044;SDS011;52192;52.002;5.956;2024-02-21T11:45:59;3.05;;;1.73;;
39044;SDS011;52192;52.002;5.956;2024-02-21T11:48:26;3.40;;;2.25;;
39044;SDS011;52192;52.002;5.956;2024-02-21T11:50:53;3.42;;;1.83;;
39044;SDS011;52192;52.002;5.956;2024-02-21T11:53:20;1.90;;;1.50;;
39044;SDS011;52192;52.002;5.956;2024-02-21T11:55:46;4.43;;;2.38;;
39044;SDS011;52192;52.002;5.956;2024-02-21T11:58:11;3.00;;;1.38;;
39044;SDS011;52192;52.002;5.956;2024-02-21T12:00:37;2.10;;;1.67;;
39044;SDS011;52192;52.002;5.956;2024-02-21T12:03:03;6.35;;;1.58;;
39044;SDS011;52192;52.002;5.956;2024-02-21T12:05:30;3.35;;;1.65;;
39044;SDS011;52192;52.002;5.956;2024-02-21T12:07:57;3.95;;;1.95;;
39044;SDS011;52192;52.002;5.956;2024-02-21T12:10:23;3.47;;;2.50;;
39044;SDS011;52192;52.002;5.956;2024-02-21T12:12:51;3.50;;;1.73;;
39044;SDS011;52192;52.002;5.956;2024-02-21T12:15:17;2.55;;;1.33;;
39044;SDS011;52192;52.002;5.956;2024-02-21T12:17:43;4.78;;;2.15;;
39044;SDS011;52192;52.002;5.956;2024-02-21T12:20:10;2.85;;;1.98;;
39044;SDS011;52192;52.002;5.956;2024-02-21T12:22:39;2.00;;;1.45;;
39044;SDS011;52192;52.002;5.956;2024-02-21T12:25:16;3.05;;;1.83;;
39044;SDS011;52192;52.002;5.956;2024-02-21T12:27:48;5.63;;;1.40;;
39044;SDS011;52192;52.002;5.956;2024-02-21T12:30:14;5.30;;;1.80;;
39044;SDS011;52192;52.002;5.956;2024-02-21T12:32:40;2.70;;;1.67;;
39044;SDS011;52192;52.002;5.956;2024-02-21T12:35:06;2.65;;;1.67;;
39044;SDS011;52192;52.002;5.956;2024-02-21T12:37:32;2.30;;;1.45;;
39044;SDS011;52192;52.002;5.956;2024-02-21T12:39:59;4.22;;;1.48;;
39044;SDS011;52192;52.002;5.956;2024-02-21T12:42:25;5.90;;;1.75;;
39044;SDS011;52192;52.002;5.956;2024-02-21T12:44:54;4.93;;;1.98;;
39044;SDS011;52192;52.002;5.956;2024-02-21T12:47:20;3.60;;;2.00;;
39044;SDS011;52192;52.002;5.956;2024-02-21T12:49:48;4.20;;;2.13;;
39044;SDS011;52192;52.002;5.956;2024-02-21T12:52:14;5.70;;;2.10;;
39044;SDS011;52192;52.002;5.956;2024-02-21T12:54:40;3.38;;;1.63;;
39044;SDS011;52192;52.002;5.956;2024-02-21T12:57:07;4.90;;;1.90;;
39044;SDS011;52192;52.002;5.956;2024-02-21T12:59:33;2.85;;;1.50;;
39044;SDS011;52192;52.002;5.956;2024-02-21T13:01:59;2.38;;;1.27;;
39044;SDS011;52192;52.002;5.956;2024-02-21T13:04:24;1.55;;;1.25;;
39044;SDS011;52192;52.002;5.956;2024-02-21T13:06:50;3.40;;;1.30;;
39044;SDS011;52192;52.002;5.956;2024-02-21T13:09:16;3.83;;;1.50;;
39044;SDS011;52192;52.002;5.956;2024-02-21T13:11:42;2.10;;;1.42;;
39044;SDS011;52192;52.002;5.956;2024-02-21T13:14:10;3.42;;;1.85;;
39044;SDS011;52192;52.002;5.956;2024-02-21T13:16:35;3.08;;;1.75;;
39044;SDS011;52192;52.002;5.956;2024-02-21T13:19:07;2.53;;;1.83;;
39044;SDS011;52192;52.002;5.956;2024-02-21T13:21:33;4.65;;;2.80;;
39044;SDS011;52192;52.002;5.956;2024-02-21T13:24:00;3.78;;;0.98;;
39044;SDS011;52192;52.002;5.956;2024-02-21T13:26:26;1.75;;;1.10;;
39044;SDS011;52192;52.002;5.956;2024-02-21T13:28:51;2.40;;;1.95;;
39044;SDS011;52192;52.002;5.956;2024-02-21T13:31:17;2.35;;;1.30;;
39044;SDS011;52192;52.002;5.956;2024-02-21T13:33:43;2.05;;;1.50;;
39044;SDS011;52192;52.002;5.956;2024-02-21T13:36:12;3.67;;;1.50;;
39044;SDS011;52192;52.002;5.956;2024-02-21T13:38:38;3.13;;;1.10;;
39044;SDS011;52192;52.002;5.956;2024-02-21T13:41:04;4.00;;;1.60;;
39044;SDS011;52192;52.002;5.956;2024-02-21T13:43:31;5.28;;;2.13;;
39044;SDS011;52192;52.002;5.956;2024-02-21T13:45:57;4.07;;;1.95;;
39044;SDS011;52192;52.002;5.956;2024-02-21T13:48:24;1.35;;;0.90;;
39044;SDS011;52192;52.002;5.956;2024-02-21T13:50:50;4.10;;;1.60;;
39044;SDS011;52192;52.002;5.956;2024-02-21T13:53:16;5.10;;;2.05;;
39044;SDS011;52192;52.002;5.956;2024-02-21T13:55:44;1.77;;;1.20;;
39044;SDS011;52192;52.002;5.956;2024-02-21T13:58:10;3.10;;;1.42;;
39044;SDS011;52192;52.002;5.956;2024-02-21T14:00:36;2.95;;;1.48;;
39044;SDS011;52192;52.002;5.956;2024-02-21T14:03:01;4.13;;;1.80;;
39044;SDS011;52192;52.002;5.956;2024-02-21T14:05:27;9.57;;;1.73;;
39044;SDS011;52192;52.002;5.956;2024-02-21T14:07:53;3.90;;;1.60;;
39044;SDS011;52192;52.002;5.956;2024-02-21T14:10:22;2.75;;;1.23;;
39044;SDS011;52192;52.002;5.956;2024-02-21T14:12:48;4.95;;;1.58;;
39044;SDS011;52192;52.002;5.956;2024-02-21T14:15:14;6.18;;;1.90;;
39044;SDS011;52192;52.002;5.956;2024-02-21T14:17:41;1.83;;;1.35;;
39044;SDS011;52192;52.002;5.956;2024-02-21T14:20:08;6.10;;;1.30;;
39044;SDS011;52192;52.002;5.956;2024-02-21T14:22:34;2.78;;;1.25;;
39044;SDS011;52192;52.002;5.956;2024-02-21T14:25:02;1.90;;;1.17;;
39044;SDS011;52192;52.002;5.956;2024-02-21T14:27:30;2.88;;;1.67;;
39044;SDS011;52192;52.002;5.956;2024-02-21T14:29:56;5.60;;;2.10;;
39044;SDS011;52192;52.002;5.956;2024-02-21T14:32:22;2.08;;;1.52;;
39044;SDS011;52192;52.002;5.956;2024-02-21T14:34:47;4.80;;;1.50;;
39044;SDS011;52192;52.002;5.956;2024-02-21T14:37:14;3.25;;;1.83;;
39044;SDS011;52192;52.002;5.956;2024-02-21T14:39:40;2.67;;;1.40;;
39044;SDS011;52192;52.002;5.956;2024-02-21T14:42:06;2.47;;;1.02;;
39044;SDS011;52192;52.002;5.956;2024-02-21T14:44:34;1.45;;;0.90;;
39044;SDS011;52192;52.002;5.956;2024-02-21T14:47:00;3.92;;;1.17;;
39044;SDS011;52192;52.002;5.956;2024-02-21T14:49:26;2.75;;;1.42;;
39044;SDS011;52192;52.002;5.956;2024-02-21T14:51:53;2.65;;;1.55;;
39044;SDS011;52192;52.002;5.956;2024-02-21T14:54:19;2.40;;;1.02;;
39044;SDS011;52192;52.002;5.956;2024-02-21T14:56:49;1.15;;;0.95;;